Time;durP1;ratioP1;P1;durP2;ratioP2;P2;SDS_P1;SDS_P2;PMS_P1;PMS_P2;Temp;Humidity;BMP_temperature;BMP_pressure;BME280_temperature;BME280_humidity;BME280_pressure;Samples;Min_cycle;Max_cycle;Signal;HPM_P1;HPM_P2
2022/01/30 00:03:01;;;;;;;25.00;4.43;;;5.10;99.90;;;;;;9887217;30;20506;-81
2022/01/30 00:08:23;;;;;;;17.63;3.50;;;5.10;99.90;;;;;;9870801;30;20211;-81
2022/01/30 00:13:45;;;;;;;20.33;4.67;;;5.00;99.90;;;;;;9897984;29;20480;-81
2022/01/30 00:24:44;;;;;;;27.73;5.53;;;5.00;99.90;;;;;;9919086;30;20206;-81
2022/01/30 00:30:09;;;;;;;28.70;4.33;;;5.00;99.90;;;;;;9987621;29;20387;-80
2022/01/30 00:35:38;;;;;;;24.07;4.53;;;4.90;99.90;;;;;;9942988;29;20222;-80
2022/01/30 00:41:00;;;;;;;27.73;4.27;;;5.00;99.90;;;;;;9958200;29;20252;-81
2022/01/30 00:46:22;;;;;;;26.83;5.07;;;4.90;99.90;;;;;;9941600;29;20207;-81
2022/01/30 00:51:46;;;;;;;24.13;4.47;;;4.90;99.90;;;;;;9957981;29;20281;-81
2022/01/30 00:57:09;;;;;;;21.83;4.87;;;5.00;99.90;;;;;;9957685;29;20229;-81
2022/01/30 01:02:32;;;;;;;22.47;3.93;;;5.00;99.90;;;;;;9985433;29;20197;-81
2022/01/30 01:07:58;;;;;;;34.83;5.30;;;4.90;99.90;;;;;;9982232;29;20210;-81
2022/01/30 01:24:27;;;;;;;20.40;4.97;;;4.90;99.90;;;;;;9864860;30;20296;-81
2022/01/30 01:29:49;;;;;;;29.43;4.90;;;4.90;99.90;;;;;;9884758;30;20409;-80
2022/01/30 01:35:15;;;;;;;22.50;4.17;;;4.80;99.90;;;;;;9911852;30;20225;-80
2022/01/30 01:40:43;;;;;;;29.53;4.57;;;4.90;99.90;;;;;;9913606;30;20241;-80
2022/01/30 01:46:13;;;;;;;29.77;4.57;;;4.80;99.90;;;;;;9901044;30;20273;-81
2022/01/30 01:51:35;;;;;;;27.30;5.13;;;4.80;99.90;;;;;;9913263;30;20213;-81
2022/01/30 01:56:57;;;;;;;25.50;3.83;;;4.80;99.90;;;;;;9915126;29;20305;-81
2022/01/30 02:02:33;;;;;;;18.63;3.53;;;4.80;99.90;;;;;;9981052;29;20205;-81
2022/01/30 02:30:17;;;;;;;23.37;4.03;;;4.60;99.90;;;;;;9993936;29;20206;-81
2022/01/30 02:35:39;;;;;;;15.47;2.70;;;4.50;99.90;;;;;;9939067;29;20221;-81
2022/01/30 02:41:01;;;;;;;14.27;2.67;;;4.40;99.90;;;;;;9938673;29;20320;-81
2022/01/30 02:46:35;;;;;;;13.83;2.90;;;4.10;99.90;;;;;;9960216;29;20279;-81
2022/01/30 02:57:19;;;;;;;17.27;3.53;;;3.20;99.90;;;;;;9976272;29;20241;-81
2022/01/30 03:02:41;;;;;;;21.80;3.20;;;3.20;99.90;;;;;;9963486;29;20208;-81
2022/01/30 03:08:03;;;;;;;19.50;4.03;;;3.30;99.90;;;;;;9982634;29;20208;-81
2022/01/30 03:13:26;;;;;;;16.80;3.13;;;3.30;99.90;;;;;;9947092;29;20212;-81
2022/01/30 03:18:48;;;;;;;19.57;3.60;;;3.30;99.90;;;;;;9975397;29;20311;-81
2022/01/30 03:24:11;;;;;;;23.07;3.67;;;3.40;99.90;;;;;;9990509;29;20275;-81
2022/01/30 03:29:37;;;;;;;29.20;4.77;;;3.40;99.90;;;;;;9989487;29;20224;-81
2022/01/30 03:35:02;;;;;;;22.20;4.60;;;3.40;99.90;;;;;;9962582;29;20218;-81
2022/01/30 03:40:25;;;;;;;32.87;5.00;;;3.50;99.90;;;;;;9974980;29;20508;-81
2022/01/30 03:45:48;;;;;;;24.70;4.73;;;3.50;99.90;;;;;;9990390;29;20442;-81
2022/01/30 03:51:10;;;;;;;22.23;4.73;;;3.60;99.90;;;;;;9962249;29;20208;-81
2022/01/30 03:56:32;;;;;;;27.87;4.50;;;3.70;99.90;;;;;;9974501;29;20236;-81
2022/01/30 04:01:54;;;;;;;34.20;5.33;;;3.70;99.90;;;;;;9973952;29;20232;-81
2022/01/30 04:07:19;;;;;;;25.43;5.13;;;3.80;99.90;;;;;;9974290;29;20495;-81
2022/01/30 04:12:42;;;;;;;23.73;5.10;;;3.90;99.90;;;;;;9975135;29;20203;-81
2022/01/30 04:18:23;;;;;;;25.90;4.80;;;3.80;99.90;;;;;;10029783;29;20223;-81
2022/01/30 04:24:20;;;;;;;35.83;7.27;;;3.80;99.90;;;;;;10020595;29;20248;-81
2022/01/30 04:29:49;;;;;;;34.33;6.17;;;3.80;99.90;;;;;;10020104;29;20208;-81
2022/01/30 04:35:26;;;;;;;30.40;5.50;;;3.90;99.90;;;;;;9980689;29;20280;-81
2022/01/30 04:58:21;;;;;;;29.03;5.33;;;4.00;99.90;;;;;;9979342;29;20238;-81
2022/01/30 05:04:22;;;;;;;34.27;4.50;;;4.00;99.90;;;;;;9856323;30;20278;-81
2022/01/30 05:10:22;;;;;;;29.43;5.30;;;4.00;99.90;;;;;;9763252;30;20222;-81
2022/01/30 05:16:04;;;;;;;24.43;4.87;;;4.00;99.90;;;;;;9777142;30;20558;-81
2022/01/30 05:22:06;;;;;;;21.13;4.67;;;4.00;99.90;;;;;;9631077;30;20229;-81
2022/01/30 05:27:48;;;;;;;27.33;5.53;;;3.90;99.90;;;;;;9640054;30;20219;-81
2022/01/30 05:33:32;;;;;;;21.20;4.37;;;3.90;99.90;;;;;;9639594;30;20219;-80
2022/01/30 05:39:18;;;;;;;30.77;4.63;;;3.90;99.90;;;;;;9645000;30;20265;-81
2022/01/30 05:45:14;;;;;;;23.53;4.57;;;4.00;99.90;;;;;;9639579;30;20298;-81
2022/01/30 05:50:55;;;;;;;22.93;4.33;;;3.90;99.90;;;;;;9669912;30;20221;-81
2022/01/30 05:56:35;;;;;;;21.10;4.07;;;4.00;99.90;;;;;;9709659;30;20253;-81
2022/01/30 06:02:05;;;;;;;18.30;3.40;;;4.00;99.90;;;;;;9695497;30;20231;-80
2022/01/30 06:07:31;;;;;;;21.43;4.07;;;4.00;99.90;;;;;;9709423;30;20257;-81
2022/01/30 06:12:53;;;;;;;21.77;3.77;;;4.00;99.90;;;;;;9723501;30;20221;-81
2022/01/30 06:18:15;;;;;;;20.83;3.27;;;4.10;99.90;;;;;;9812316;29;20228;-81
2022/01/30 06:23:56;;;;;;;20.37;4.27;;;4.10;99.90;;;;;;9963423;29;20228;-81
2022/01/30 06:29:37;;;;;;;18.20;4.03;;;4.10;99.90;;;;;;9979446;29;20212;-81
2022/01/30 06:35:18;;;;;;;19.90;4.40;;;4.10;99.90;;;;;;9978806;29;20261;-81
2022/01/30 06:40:59;;;;;;;26.00;5.17;;;4.10;99.90;;;;;;9979651;29;20300;-81
2022/01/30 06:46:27;;;;;;;22.30;3.57;;;4.10;99.90;;;;;;9989125;29;20577;-81
2022/01/30 06:52:09;;;;;;;14.00;3.93;;;4.10;99.90;;;;;;9978213;29;20399;-81
2022/01/30 06:58:00;;;;;;;20.37;3.63;;;4.10;99.90;;;;;;9890150;30;20260;-81
2022/01/30 07:03:41;;;;;;;39.03;11.77;;;4.20;99.90;;;;;;9879212;30;20273;-81
2022/01/30 07:09:34;;;;;;;19.73;5.03;;;4.20;99.90;;;;;;9873730;30;20210;-81
2022/01/30 07:14:56;;;;;;;20.67;5.93;;;4.20;99.90;;;;;;9861552;30;20220;-81
2022/01/30 07:20:19;;;;;;;19.47;4.17;;;4.20;99.90;;;;;;9842563;30;20323;-80
2022/01/30 07:25:41;;;;;;;13.23;3.17;;;4.10;99.90;;;;;;9836669;30;20207;-81
2022/01/30 07:31:03;;;;;;;15.40;2.90;;;3.90;99.90;;;;;;9841225;29;20217;-80
2022/01/30 07:36:27;;;;;;;19.20;2.77;;;3.80;99.90;;;;;;9939858;29;20237;-81
2022/01/30 07:41:48;;;;;;;17.40;3.60;;;3.60;99.90;;;;;;9924913;29;20249;-81
2022/01/30 07:47:10;;;;;;;14.37;2.33;;;3.60;99.90;;;;;;9949933;29;20200;-81
2022/01/30 07:52:34;;;;;;;18.37;4.97;;;3.40;99.90;;;;;;9957301;29;20223;-81
2022/01/30 07:57:56;;;;;;;18.90;4.90;;;3.30;99.90;;;;;;9980020;29;20236;-80
2022/01/30 08:03:18;;;;;;;17.27;5.73;;;3.20;99.90;;;;;;9998174;29;20240;-81
2022/01/30 08:08:40;;;;;;;17.77;4.27;;;3.20;99.90;;;;;;9969032;29;20208;-81
2022/01/30 08:14:02;;;;;;;14.60;3.90;;;3.20;99.90;;;;;;10011392;29;20540;-80
2022/01/30 08:19:25;;;;;;;20.17;4.20;;;3.20;99.90;;;;;;10022796;29;20240;-81
2022/01/30 08:24:46;;;;;;;17.33;4.13;;;3.10;99.90;;;;;;9969951;29;20559;-81
2022/01/30 08:30:09;;;;;;;9.10;3.03;;;3.10;99.90;;;;;;9999601;29;20275;-81
2022/01/30 08:35:32;;;;;;;15.80;4.50;;;3.10;99.90;;;;;;9995856;29;20270;-81
2022/01/30 08:40:53;;;;;;;11.90;4.50;;;3.10;99.90;;;;;;9992745;29;20248;-80
2022/01/30 08:46:15;;;;;;;15.57;4.43;;;2.90;99.90;;;;;;9979828;29;20256;-81
2022/01/30 08:51:37;;;;;;;11.43;5.03;;;2.90;99.90;;;;;;9979824;29;20216;-80
2022/01/30 08:56:59;;;;;;;12.13;4.90;;;2.90;99.90;;;;;;9992328;29;20272;-81
2022/01/30 09:02:22;;;;;;;12.87;5.23;;;3.00;99.90;;;;;;9967127;29;20248;-81
2022/01/30 09:07:45;;;;;;;18.33;6.73;;;3.10;99.90;;;;;;9991102;29;20203;-81
2022/01/30 09:13:07;;;;;;;14.90;5.10;;;3.10;99.90;;;;;;9971531;29;20414;-80
2022/01/30 09:18:30;;;;;;;10.30;5.13;;;3.10;99.90;;;;;;10019394;29;20447;-80
2022/01/30 09:23:52;;;;;;;8.23;2.93;;;3.00;99.90;;;;;;9998447;29;20279;-81
2022/01/30 09:29:14;;;;;;;6.97;2.30;;;3.00;99.90;;;;;;9981427;29;20268;-81
2022/01/30 09:34:50;;;;;;;6.83;2.30;;;3.00;99.90;;;;;;9995509;29;20205;-81
2022/01/30 09:40:14;;;;;;;5.50;2.10;;;3.00;99.90;;;;;;9993388;29;20473;-81
2022/01/30 09:45:36;;;;;;;10.13;2.73;;;3.10;99.90;;;;;;9993375;29;20219;-80
2022/01/30 09:50:59;;;;;;;15.60;5.10;;;3.00;99.90;;;;;;9993405;29;20195;-81
2022/01/30 09:56:22;;;;;;;8.63;3.53;;;3.00;99.90;;;;;;9943213;29;20388;-81
2022/01/30 10:01:44;;;;;;;16.03;4.67;;;2.90;99.90;;;;;;9952610;29;20216;-81
2022/01/30 10:07:26;;;;;;;9.27;3.60;;;2.80;99.90;;;;;;9942382;29;20454;-81
2022/01/30 10:13:05;;;;;;;11.20;5.47;;;2.80;99.90;;;;;;9969303;29;20196;-81
2022/01/30 10:18:31;;;;;;;8.70;3.57;;;2.80;99.90;;;;;;10016947;29;20414;-80
2022/01/30 10:23:54;;;;;;;12.50;4.37;;;2.80;99.90;;;;;;9995359;29;20223;-81
2022/01/30 10:29:28;;;;;;;13.13;4.33;;;2.80;99.90;;;;;;9992144;29;20207;-81
2022/01/30 10:35:03;;;;;;;9.77;4.23;;;2.80;99.90;;;;;;9989257;29;20212;-79
2022/01/30 10:40:35;;;;;;;12.97;4.97;;;2.70;99.90;;;;;;9976567;29;20252;-81
2022/01/30 10:45:58;;;;;;;13.73;4.67;;;2.70;99.90;;;;;;9976218;29;20226;-81
2022/01/30 10:51:20;;;;;;;8.77;3.17;;;2.90;99.90;;;;;;9991694;29;20207;-81
2022/01/30 10:56:42;;;;;;;3.80;1.87;;;3.00;99.90;;;;;;9953183;29;20220;-81
2022/01/30 11:02:19;;;;;;;7.10;2.80;;;3.10;99.90;;;;;;9963557;29;20215;-80
2022/01/30 11:07:43;;;;;;;7.90;3.50;;;3.30;99.90;;;;;;9953562;29;20246;-81
2022/01/30 11:13:08;;;;;;;8.53;3.13;;;3.40;99.90;;;;;;9979285;29;20217;-81
2022/01/30 11:18:30;;;;;;;7.33;2.63;;;3.50;99.90;;;;;;10007173;29;20235;-81
2022/01/30 11:23:54;;;;;;;4.23;1.80;;;3.60;99.90;;;;;;9990137;29;20248;-81
2022/01/30 11:29:21;;;;;;;6.93;2.37;;;3.80;99.90;;;;;;9988091;29;20211;-80
2022/01/30 11:34:44;;;;;;;8.83;3.20;;;3.90;99.90;;;;;;9978235;29;20260;-81
2022/01/30 11:40:18;;;;;;;7.97;3.00;;;4.00;99.90;;;;;;9975064;29;20259;-81
2022/01/30 11:45:40;;;;;;;5.77;2.20;;;4.10;99.90;;;;;;9975084;29;20510;-81
2022/01/30 11:51:05;;;;;;;4.07;2.20;;;4.10;99.90;;;;;;9990054;29;20204;-81
2022/01/30 11:56:31;;;;;;;5.73;1.90;;;4.30;99.90;;;;;;9972027;29;20522;-81
2022/01/30 12:02:33;;;;;;;4.47;2.30;;;4.40;99.90;;;;;;9987724;29;20265;-81
2022/01/30 12:07:56;;;;;;;10.00;3.80;;;4.50;99.90;;;;;;9990822;29;20221;-81
2022/01/30 12:13:44;;;;;;;10.33;4.67;;;4.60;99.90;;;;;;9984785;29;20510;-81
2022/01/30 12:19:06;;;;;;;11.23;4.23;;;4.60;99.90;;;;;;10000594;29;20272;-81
2022/01/30 12:24:31;;;;;;;19.63;11.23;;;4.70;99.90;;;;;;9988847;29;20500;-81
2022/01/30 12:29:55;;;;;;;6.53;3.27;;;4.80;99.90;;;;;;9972907;29;20489;-81
2022/01/30 12:35:19;;;;;;;9.03;3.20;;;4.80;99.90;;;;;;9974499;29;20212;-80
2022/01/30 12:40:46;;;;;;;8.03;2.20;;;4.90;99.90;;;;;;9961169;29;20305;-81
2022/01/30 12:46:09;;;;;;;7.90;2.30;;;4.80;99.90;;;;;;9980792;29;20202;-81
2022/01/30 12:51:31;;;;;;;7.27;2.40;;;4.80;99.90;;;;;;9969032;29;20206;-81
2022/01/30 12:56:55;;;;;;;10.37;3.43;;;4.90;99.90;;;;;;9994405;29;20199;-80
2022/01/30 13:02:17;;;;;;;14.67;3.53;;;4.90;99.90;;;;;;9982440;29;20476;-81
2022/01/30 13:07:39;;;;;;;13.93;4.57;;;4.90;99.90;;;;;;9966793;29;20221;-81
2022/01/30 13:13:04;;;;;;;7.20;3.40;;;4.90;99.90;;;;;;9978767;29;20257;-80
2022/01/30 13:18:25;;;;;;;6.37;2.83;;;5.00;99.90;;;;;;9985502;29;20553;-81
2022/01/30 13:24:19;;;;;;;9.27;3.00;;;4.90;99.90;;;;;;10048973;29;20390;-81
2022/01/30 13:29:41;;;;;;;4.83;2.40;;;4.90;99.90;;;;;;9994800;29;20205;-81
2022/01/30 13:35:16;;;;;;;7.40;2.57;;;4.90;99.90;;;;;;9995834;29;20379;-81
2022/01/30 13:40:53;;;;;;;11.67;4.10;;;4.90;99.90;;;;;;9947357;29;20445;-81
2022/01/30 13:52:06;;;;;;;16.63;3.17;;;4.80;99.90;;;;;;9918174;29;20210;-81
2022/01/30 13:57:31;;;;;;;3.43;1.70;;;4.90;99.90;;;;;;9909584;29;20310;-80
2022/01/30 14:03:23;;;;;;;9.30;3.43;;;4.80;99.90;;;;;;9955996;29;20206;-81
2022/01/30 14:08:57;;;;;;;6.93;2.33;;;4.90;99.90;;;;;;9955215;29;20367;-81
2022/01/30 14:14:21;;;;;;;9.03;3.03;;;4.90;99.90;;;;;;9956084;29;20240;-81
2022/01/30 14:19:51;;;;;;;4.50;2.37;;;4.80;99.90;;;;;;9949611;29;20233;-81
2022/01/30 14:25:18;;;;;;;7.10;3.17;;;4.80;99.90;;;;;;9939592;29;20206;-81
2022/01/30 14:30:40;;;;;;;3.97;2.00;;;4.70;99.90;;;;;;9960715;29;20210;-81
2022/01/30 14:36:06;;;;;;;4.63;1.80;;;4.80;99.90;;;;;;9954186;29;20202;-81
2022/01/30 14:41:30;;;;;;;8.73;1.97;;;4.80;99.90;;;;;;9969664;29;20611;-81
2022/01/30 14:46:52;;;;;;;9.23;2.00;;;4.70;99.90;;;;;;9963950;29;20205;-81
2022/01/30 14:52:14;;;;;;;4.10;1.87;;;4.80;99.90;;;;;;9977450;29;20204;-81
2022/01/30 14:57:37;;;;;;;3.67;1.27;;;4.70;99.90;;;;;;9975592;29;20224;-80
2022/01/30 15:02:59;;;;;;;5.23;1.70;;;4.80;99.90;;;;;;10005065;29;20228;-80
2022/01/30 15:08:21;;;;;;;7.53;1.43;;;4.80;99.90;;;;;;9974937;29;20196;-81
2022/01/30 15:13:43;;;;;;;1.83;0.90;;;4.80;99.90;;;;;;9996659;29;20208;-80
2022/01/30 15:19:07;;;;;;;6.70;3.00;;;4.80;99.90;;;;;;9990429;29;20310;-81
2022/01/30 15:24:29;;;;;;;7.17;3.20;;;4.70;99.90;;;;;;9975092;29;20207;-81
2022/01/30 15:29:52;;;;;;;10.73;3.30;;;4.60;99.90;;;;;;9974770;29;20281;-81
2022/01/30 15:35:17;;;;;;;6.80;2.67;;;4.70;99.90;;;;;;9987433;29;20196;-81
2022/01/30 15:40:39;;;;;;;3.53;1.43;;;4.80;99.90;;;;;;9974635;29;20253;-81
2022/01/30 15:51:50;;;;;;;8.13;3.17;;;4.70;99.90;;;;;;9987378;29;20433;-81
2022/01/30 15:57:13;;;;;;;8.27;2.30;;;4.60;99.90;;;;;;9977139;29;20380;-81
2022/01/30 16:02:35;;;;;;;7.20;2.23;;;4.60;99.90;;;;;;10003471;29;20438;-81
2022/01/30 16:08:00;;;;;;;3.00;1.30;;;4.60;99.90;;;;;;9989763;29;20209;-81
2022/01/30 16:19:23;;;;;;;2.90;1.30;;;4.60;99.90;;;;;;9994586;29;20247;-81
2022/01/30 16:24:46;;;;;;;6.87;1.80;;;4.50;99.90;;;;;;9996053;29;20515;-81
2022/01/30 16:30:09;;;;;;;6.70;2.57;;;4.50;99.90;;;;;;10002368;29;20255;-81
2022/01/30 16:35:34;;;;;;;8.70;1.33;;;4.40;99.90;;;;;;9980576;29;20212;-81
2022/01/30 16:40:56;;;;;;;5.33;2.10;;;4.40;99.90;;;;;;9992745;29;20320;-81
2022/01/30 16:51:50;;;;;;;13.47;4.00;;;4.40;99.90;;;;;;9980160;29;20201;-81
2022/01/30 16:57:12;;;;;;;14.30;4.77;;;4.40;99.90;;;;;;9994777;29;20229;-81
2022/01/30 17:02:35;;;;;;;7.90;2.80;;;4.30;99.90;;;;;;9982392;29;20504;-81
2022/01/30 17:07:57;;;;;;;12.23;2.87;;;4.30;99.90;;;;;;9989489;29;20201;-81
2022/01/30 17:13:20;;;;;;;7.93;2.93;;;4.40;99.90;;;;;;9957720;29;20393;-81
2022/01/30 17:18:42;;;;;;;7.70;2.97;;;4.30;99.90;;;;;;9979202;29;20307;-81
2022/01/30 17:24:04;;;;;;;6.17;2.67;;;4.30;99.90;;;;;;9994398;29;20202;-81
2022/01/30 17:29:26;;;;;;;6.83;3.07;;;4.30;99.90;;;;;;9980630;29;20201;-80
2022/01/30 17:34:48;;;;;;;7.43;3.07;;;4.30;99.90;;;;;;9990789;29;20279;-81
2022/01/30 17:40:10;;;;;;;7.40;3.27;;;4.30;99.90;;;;;;9978421;29;20251;-81
2022/01/30 17:45:32;;;;;;;5.00;1.60;;;4.20;99.90;;;;;;9978353;29;20524;-81
2022/01/30 17:50:54;;;;;;;6.50;2.67;;;4.20;99.90;;;;;;9965550;29;20502;-81
2022/01/30 17:56:16;;;;;;;10.07;3.23;;;4.20;99.90;;;;;;9990538;29;20515;-81
2022/01/30 18:01:41;;;;;;;6.53;2.93;;;4.20;99.90;;;;;;9965538;29;20242;-80
2022/01/30 18:07:08;;;;;;;7.70;2.50;;;4.10;99.90;;;;;;9964774;29;20201;-81
2022/01/30 18:12:30;;;;;;;6.47;1.67;;;4.20;99.90;;;;;;9979690;29;20286;-81
2022/01/30 18:17:52;;;;;;;6.57;2.53;;;4.10;99.90;;;;;;10001448;29;20461;-80
2022/01/30 18:23:14;;;;;;;7.37;3.17;;;4.10;99.90;;;;;;9977153;29;20214;-81
2022/01/30 18:28:37;;;;;;;10.33;3.90;;;4.10;99.90;;;;;;9989584;29;20284;-81
2022/01/30 18:33:58;;;;;;;14.80;4.03;;;4.10;99.90;;;;;;9976091;29;20478;-80
2022/01/30 18:39:30;;;;;;;11.47;3.87;;;4.10;99.90;;;;;;9963735;29;20252;-80
2022/01/30 18:44:52;;;;;;;12.50;4.83;;;4.10;99.90;;;;;;9976337;29;20213;-80
2022/01/30 18:50:14;;;;;;;7.80;2.10;;;4.10;99.90;;;;;;9964039;29;20207;-80
2022/01/30 18:55:36;;;;;;;2.70;1.30;;;4.00;99.90;;;;;;9988596;29;20233;-80
2022/01/30 19:00:58;;;;;;;4.30;1.90;;;4.10;99.90;;;;;;9978763;29;20234;-80
2022/01/30 19:06:22;;;;;;;10.43;1.40;;;4.00;99.90;;;;;;9990967;29;20223;-80
2022/01/30 19:11:45;;;;;;;11.67;3.73;;;4.10;99.90;;;;;;9950858;29;20288;-80
2022/01/30 19:17:07;;;;;;;3.83;1.80;;;4.00;99.90;;;;;;9974945;29;20499;-80
2022/01/30 19:22:29;;;;;;;7.67;1.87;;;4.00;99.90;;;;;;9951034;29;20205;-80
2022/01/30 19:27:51;;;;;;;5.67;2.13;;;4.00;99.90;;;;;;9966080;29;20220;-80
2022/01/30 19:33:13;;;;;;;7.37;2.40;;;4.00;99.90;;;;;;9956415;29;20479;-80
2022/01/30 19:38:36;;;;;;;5.00;1.73;;;3.90;99.90;;;;;;9975025;29;20228;-80
2022/01/30 19:43:58;;;;;;;7.27;2.03;;;3.90;99.90;;;;;;9937990;29;20294;-80
2022/01/30 19:49:20;;;;;;;4.77;1.40;;;3.90;99.90;;;;;;9937576;29;20203;-80
2022/01/30 19:54:42;;;;;;;5.87;2.50;;;3.80;99.90;;;;;;9972295;29;20197;-81
2022/01/30 20:00:08;;;;;;;7.27;2.23;;;3.80;99.90;;;;;;9944832;29;20417;-80
2022/01/30 20:05:29;;;;;;;4.73;1.77;;;3.80;99.90;;;;;;9944312;29;20208;-80
2022/01/30 20:10:53;;;;;;;4.70;1.80;;;3.80;99.90;;;;;;9944151;29;20251;-81
2022/01/30 20:16:15;;;;;;;5.00;1.30;;;3.80;99.90;;;;;;9927760;29;20283;-81
2022/01/30 20:21:37;;;;;;;4.93;1.70;;;3.70;99.90;;;;;;9930001;30;20241;-80
2022/01/30 20:27:01;;;;;;;3.70;1.40;;;3.80;99.90;;;;;;9909303;29;20232;-80
2022/01/30 20:32:23;;;;;;;3.03;1.43;;;3.70;99.90;;;;;;9906278;30;20205;-81
2022/01/30 20:37:55;;;;;;;9.23;2.87;;;3.70;99.90;;;;;;9895976;30;20208;-80
2022/01/30 20:43:17;;;;;;;3.10;1.50;;;3.70;99.90;;;;;;9905759;30;20474;-80
2022/01/30 20:48:38;;;;;;;5.10;2.73;;;3.70;99.90;;;;;;9920795;30;20281;-80
2022/01/30 20:54:01;;;;;;;5.63;2.03;;;3.70;99.90;;;;;;9905493;30;20206;-80
2022/01/30 20:59:23;;;;;;;4.67;1.40;;;3.70;99.90;;;;;;9905403;30;20230;-80
2022/01/30 21:04:45;;;;;;;5.07;1.83;;;3.70;99.90;;;;;;9934796;29;20248;-79
2022/01/30 21:10:15;;;;;;;3.50;1.50;;;3.70;99.90;;;;;;9929904;29;20201;-80
2022/01/30 21:15:37;;;;;;;3.73;1.53;;;3.60;99.90;;;;;;9965575;29;20219;-80
2022/01/30 21:21:01;;;;;;;3.60;1.50;;;3.70;99.90;;;;;;9957725;29;20239;-80
2022/01/30 21:26:24;;;;;;;6.80;2.10;;;3.60;99.90;;;;;;9981899;29;20214;-80
2022/01/30 21:31:46;;;;;;;3.30;1.73;;;3.50;99.90;;;;;;9929242;29;20208;-80
2022/01/30 21:37:08;;;;;;;5.10;2.10;;;3.60;99.90;;;;;;9955668;29;20208;-80
2022/01/30 21:42:30;;;;;;;7.13;3.20;;;3.60;99.90;;;;;;9953541;29;20319;-80
2022/01/30 21:47:52;;;;;;;3.73;1.20;;;3.50;99.90;;;;;;9956128;29;20228;-80
2022/01/30 21:53:14;;;;;;;2.03;0.87;;;3.50;99.90;;;;;;9941492;29;20215;-80
2022/01/30 21:58:39;;;;;;;2.77;0.87;;;3.40;99.90;;;;;;9928061;29;20257;-80
2022/01/30 22:04:01;;;;;;;3.10;1.60;;;3.50;99.90;;;;;;9954605;29;20487;-80
2022/01/30 22:09:23;;;;;;;3.17;1.20;;;3.40;99.90;;;;;;9955250;29;20272;-80
2022/01/30 22:15:04;;;;;;;6.07;2.20;;;3.30;99.90;;;;;;9968328;29;20217;-80
2022/01/30 22:20:34;;;;;;;6.53;2.23;;;3.30;99.90;;;;;;9972110;29;20494;-80
2022/01/30 22:25:56;;;;;;;5.00;1.50;;;3.20;99.90;;;;;;9952187;29;20279;-80
2022/01/30 22:31:18;;;;;;;4.50;1.60;;;3.10;99.90;;;;;;9967905;29;20439;-80
2022/01/30 22:36:40;;;;;;;6.33;1.63;;;3.10;99.90;;;;;;9953904;29;20206;-80
2022/01/30 22:42:04;;;;;;;1.90;0.90;;;2.90;99.90;;;;;;9974161;29;20307;-80
2022/01/30 22:47:26;;;;;;;5.00;2.20;;;2.80;99.90;;;;;;9991668;29;20208;-80
2022/01/30 22:52:49;;;;;;;5.70;2.30;;;2.70;99.90;;;;;;9963998;29;20204;-79
2022/01/30 22:58:11;;;;;;;7.10;1.60;;;2.60;99.90;;;;;;9975984;29;20209;-79
2022/01/30 23:03:33;;;;;;;5.73;1.73;;;2.70;99.90;;;;;;9987727;29;20200;-80
2022/01/30 23:08:55;;;;;;;4.83;1.50;;;2.50;99.90;;;;;;10004825;29;20257;-80
2022/01/30 23:14:17;;;;;;;5.57;1.43;;;2.50;99.90;;;;;;10000075;29;20207;-80
2022/01/30 23:19:39;;;;;;;4.40;1.27;;;2.40;99.90;;;;;;10026601;29;20238;-80
2022/01/30 23:25:05;;;;;;;1.87;1.00;;;2.40;99.90;;;;;;10002730;29;20207;-79
2022/01/30 23:30:29;;;;;;;2.97;1.33;;;2.30;99.90;;;;;;9990073;29;20563;-79
2022/01/30 23:35:51;;;;;;;3.77;1.60;;;2.30;99.90;;;;;;9998831;29;20204;-80
2022/01/30 23:41:25;;;;;;;5.87;1.70;;;2.30;99.90;;;;;;9958239;29;20261;-80
2022/01/30 23:46:49;;;;;;;6.87;1.60;;;2.20;99.90;;;;;;9952596;29;20201;-80
2022/01/30 23:52:11;;;;;;;3.33;1.23;;;2.20;99.90;;;;;;9952568;29;20227;-80
2022/01/30 23:57:33;;;;;;;2.20;1.30;;;2.10;99.90;;;;;;9937435;29;20212;-80
